Terminal Aerodrome Forecast
Issued by NWS Paducah, KY

Home | Current Version | Previous Version | Text Only | Print | Product List | Glossary On
Versions: 1 2 3 4 5 6 7 8 9 10 11 12 13 14 15 16 17 18 19 20 21 22 23 24 25 26 27 28 29 30 31 32 33 34 35 36 37 38
000
FTUS43 KPAH 211726
TAFPAH
TAF
KPAH 211726Z 2118/2218 12009KT P6SM SCT250
      TEMPO 2118/2120 BKN020
     FM220900 15009KT P6SM FEW250 WS020/19030KT
     FM221400 16015G25KT P6SM BKN060
     FM221600 17016G28KT P6SM OVC040
     FM221700 17016G28KT P6SM OVC030=

USA.gov is the U.S. government's official web portal to all federal, state and local government web resources and services.